Time;durP1;ratioP1;P1;durP2;ratioP2;P2;SDS_P1;SDS_P2;PMS_P1;PMS_P2;Temp;Humidity;BMP_temperature;BMP_pressure;BME280_temperature;BME280_humidity;BME280_pressure;Samples;Min_cycle;Max_cycle;Signal;HPM_P1;HPM_P2
2022/03/02 00:01:56;;;;;;;15.30;7.40;;;;;;;1.50;67.53;102068.11;108113;1277;72695;-76
2022/03/02 00:04:22;;;;;;;14.70;8.70;;;;;;;1.50;67.29;102070.09;108159;1277;60672;-75
2022/03/02 00:06:49;;;;;;;11.40;7.00;;;;;;;1.48;67.49;102072.08;108141;1277;61708;-76
2022/03/02 00:09:16;;;;;;;16.70;7.90;;;;;;;1.46;67.63;102062.92;108144;1277;75737;-75
2022/03/02 00:11:42;;;;;;;13.60;8.00;;;;;;;1.45;67.52;102063.71;108114;1277;59285;-75
2022/03/02 00:14:09;;;;;;;12.10;7.10;;;;;;;1.44;67.78;102065.70;108183;1277;59248;-76
2022/03/02 00:16:35;;;;;;;9.30;5.50;;;;;;;1.43;67.90;102061.88;108205;1277;59140;-74
2022/03/02 00:19:03;;;;;;;13.10;6.30;;;;;;;1.42;68.09;102058.77;108233;1277;59417;-76
2022/03/02 00:21:30;;;;;;;10.10;6.40;;;;;;;1.40;68.17;102058.75;108156;1277;74991;-74
2022/03/02 00:23:56;;;;;;;15.20;8.00;;;;;;;1.38;68.22;102059.38;108245;1277;58849;-76
2022/03/02 00:26:23;;;;;;;12.60;7.20;;;;;;;1.36;68.28;102058.27;107930;1278;59121;-76
2022/03/02 00:28:50;;;;;;;13.30;7.10;;;;;;;1.33;68.34;102058.59;108164;1277;60006;-76
2022/03/02 00:31:16;;;;;;;12.10;7.10;;;;;;;1.30;68.35;102060.14;108159;1277;61921;-75
2022/03/02 00:33:43;;;;;;;13.70;7.40;;;;;;;1.29;68.47;102061.60;108205;1277;59760;-74
2022/03/02 00:36:10;;;;;;;12.60;6.80;;;;;;;1.29;68.38;102061.25;108228;1277;71145;-74
2022/03/02 00:38:36;;;;;;;13.90;7.60;;;;;;;1.29;68.36;102062.85;108183;1277;59205;-76
2022/03/02 00:41:06;;;;;;;14.80;8.10;;;;;;;1.29;68.13;102062.83;107933;1277;62428;-76
2022/03/02 00:43:32;;;;;;;15.40;8.60;;;;;;;1.30;68.24;102060.00;108239;1277;60395;-74
2022/03/02 00:45:59;;;;;;;16.30;8.70;;;;;;;1.31;68.00;102062.05;108154;1277;59162;-75
2022/03/02 00:48:26;;;;;;;16.80;8.10;;;;;;;1.30;68.13;102059.98;108201;1277;59333;-74
2022/03/02 00:50:53;;;;;;;15.20;7.10;;;;;;;1.32;68.19;102057.62;108179;1277;74140;-75
2022/03/02 00:53:19;;;;;;;15.00;8.00;;;;;;;1.31;68.36;102051.19;107902;1277;62505;-74
2022/03/02 00:55:46;;;;;;;14.80;8.00;;;;;;;1.31;68.41;102047.73;108209;1277;60234;-75
2022/03/02 00:58:13;;;;;;;17.00;7.90;;;;;;;1.29;68.50;102043.15;108189;1277;59336;-74
2022/03/02 01:00:39;;;;;;;16.90;8.40;;;;;;;1.28;68.58;102047.00;108190;1277;71271;-75
2022/03/02 01:03:06;;;;;;;16.70;8.10;;;;;;;1.28;68.67;102044.05;108197;1277;73694;-74
2022/03/02 01:05:33;;;;;;;15.40;7.50;;;;;;;1.28;68.80;102041.98;108183;1277;59975;-74
2022/03/02 01:07:59;;;;;;;16.90;8.20;;;;;;;1.27;68.94;102041.48;108226;1277;60295;-74
2022/03/02 01:10:26;;;;;;;12.40;7.50;;;;;;;1.28;68.98;102035.89;108161;1277;59626;-76
2022/03/02 01:12:52;;;;;;;21.90;8.20;;;;;;;1.28;69.01;102032.90;108210;1277;72378;-76
2022/03/02 01:15:19;;;;;;;16.40;7.00;;;;;;;1.28;69.09;102037.61;108199;1277;59253;-74
2022/03/02 01:17:46;;;;;;;19.30;8.60;;;;;;;1.29;69.18;102034.60;108208;1277;62130;-74
2022/03/02 01:20:13;;;;;;;16.50;8.10;;;;;;;1.30;69.30;102031.38;108201;1277;61869;-75
2022/03/02 01:22:40;;;;;;;16.40;8.00;;;;;;;1.31;69.21;102023.14;108183;1277;75901;-74
2022/03/02 01:25:07;;;;;;;15.80;8.50;;;;;;;1.31;69.37;102024.88;107951;1277;71116;-76
2022/03/02 01:27:34;;;;;;;16.20;7.90;;;;;;;1.31;69.41;102024.02;108214;1277;73030;-75
2022/03/02 01:30:03;;;;;;;15.20;7.70;;;;;;;1.31;69.49;102022.60;108192;1277;61296;-76
2022/03/02 01:32:29;;;;;;;13.90;7.20;;;;;;;1.30;69.35;102015.01;108149;1277;61468;-76
2022/03/02 01:34:56;;;;;;;16.40;7.60;;;;;;;1.29;69.60;102018.05;108219;1277;59177;-74
2022/03/02 01:37:22;;;;;;;18.40;9.20;;;;;;;1.28;69.55;102019.14;108194;1277;59214;-76
2022/03/02 01:39:49;;;;;;;16.70;7.90;;;;;;;1.28;69.54;102015.66;108176;1277;59713;-74
2022/03/02 01:42:15;;;;;;;16.00;8.60;;;;;;;1.28;69.79;102013.04;108182;1277;59333;-75
2022/03/02 01:44:42;;;;;;;17.80;8.30;;;;;;;1.28;69.75;102010.39;108240;1277;59144;-74
2022/03/02 01:47:08;;;;;;;14.80;7.40;;;;;;;1.29;69.98;102005.66;108184;1277;74885;-74
2022/03/02 01:49:36;;;;;;;18.70;9.30;;;;;;;1.28;69.98;102006.77;108196;1277;71328;-76
2022/03/02 01:52:03;;;;;;;18.30;8.60;;;;;;;1.27;69.97;102001.25;108162;1275;59212;-74
2022/03/02 01:54:29;;;;;;;17.50;8.90;;;;;;;1.27;70.22;101997.61;108215;1277;61414;-76
2022/03/02 01:56:56;;;;;;;14.90;7.30;;;;;;;1.26;70.32;101992.91;108209;1277;60179;-76
2022/03/02 01:59:22;;;;;;;19.80;9.90;;;;;;;1.26;70.53;101986.50;108218;1277;59470;-74
2022/03/02 02:01:49;;;;;;;19.20;9.60;;;;;;;1.24;70.56;101989.01;108152;1275;58761;-74
2022/03/02 02:04:16;;;;;;;16.70;9.40;;;;;;;1.22;70.54;101986.46;108240;1277;74011;-75
2022/03/02 02:06:42;;;;;;;18.50;9.90;;;;;;;1.21;70.73;101982.20;107900;1277;61089;-74
2022/03/02 02:09:09;;;;;;;17.80;9.20;;;;;;;1.20;70.85;101982.08;108205;1277;59146;-76
2022/03/02 02:11:35;;;;;;;18.60;9.60;;;;;;;1.18;70.97;101982.87;108167;1277;59460;-74
2022/03/02 02:14:02;;;;;;;18.10;8.70;;;;;;;1.17;71.11;101982.95;108175;1277;59099;-74
2022/03/02 02:16:29;;;;;;;16.60;8.30;;;;;;;1.15;71.18;101983.75;108148;1277;72932;-76
2022/03/02 02:18:55;;;;;;;21.80;9.40;;;;;;;1.13;71.26;101981.77;107993;1277;61544;-74
2022/03/02 02:21:22;;;;;;;16.80;8.80;;;;;;;1.10;71.34;101980.19;108173;1277;62441;-74
2022/03/02 02:23:50;;;;;;;19.90;9.40;;;;;;;1.07;71.58;101977.52;108170;1277;76092;-74
2022/03/02 02:26:17;;;;;;;20.00;9.60;;;;;;;1.06;71.86;101975.66;108173;1277;71308;-76
2022/03/02 02:28:43;;;;;;;17.00;9.30;;;;;;;1.04;71.91;101966.05;108178;1277;73145;-75
2022/03/02 02:31:10;;;;;;;13.50;7.60;;;;;;;1.01;72.05;101962.74;108179;1277;60776;-74
2022/03/02 02:33:36;;;;;;;18.60;9.70;;;;;;;0.95;72.10;101955.34;108208;1277;61868;-76
2022/03/02 02:36:07;;;;;;;17.00;9.20;;;;;;;0.93;72.33;101952.84;108158;1277;59696;-76
2022/03/02 02:38:33;;;;;;;18.00;9.60;;;;;;;0.93;72.48;101955.63;108184;1277;73286;-74
2022/03/02 02:41:00;;;;;;;20.40;9.30;;;;;;;0.95;72.53;101955.04;108145;1277;59166;-74
2022/03/02 02:43:26;;;;;;;22.70;9.60;;;;;;;0.96;72.44;101955.12;108193;1277;61676;-76
2022/03/02 02:45:54;;;;;;;21.90;10.40;;;;;;;0.98;72.29;101955.55;108157;1277;59092;-76
2022/03/02 02:48:21;;;;;;;21.20;8.90;;;;;;;0.99;72.15;101955.12;107823;1277;75171;-76
2022/03/02 02:50:48;;;;;;;14.90;7.90;;;;;;;1.00;71.84;101952.29;107889;1277;71421;-74
2022/03/02 02:53:16;;;;;;;18.60;9.40;;;;;;;1.00;71.67;101950.89;108190;1277;73941;-74
2022/03/02 02:55:43;;;;;;;23.20;10.00;;;;;;;0.99;71.49;101947.31;108169;1277;61108;-76
2022/03/02 02:58:12;;;;;;;19.60;9.90;;;;;;;0.98;71.64;101948.92;108176;1277;60277;-74
2022/03/02 03:00:41;;;;;;;18.20;9.50;;;;;;;0.98;71.98;101949.62;108168;1277;76283;-76
2022/03/02 03:03:08;;;;;;;19.40;9.60;;;;;;;0.97;72.15;101947.23;108195;1277;72371;-76
2022/03/02 03:05:35;;;;;;;17.30;9.90;;;;;;;0.96;72.32;101948.01;108225;1277;73665;-74
2022/03/02 03:08:05;;;;;;;20.50;10.30;;;;;;;0.94;72.37;101943.95;108185;1277;61279;-76
2022/03/02 03:10:33;;;;;;;16.60;8.40;;;;;;;0.92;72.49;101944.72;108175;1277;60718;-76
2022/03/02 03:13:00;;;;;;;21.10;10.40;;;;;;;0.92;72.70;101945.09;108205;1277;74269;-74
2022/03/02 03:15:28;;;;;;;19.10;10.40;;;;;;;0.91;72.59;101941.29;108181;1277;71403;-76
2022/03/02 03:17:55;;;;;;;20.40;9.40;;;;;;;0.90;72.84;101941.54;108210;1277;72909;-75
2022/03/02 03:20:25;;;;;;;18.50;10.50;;;;;;;0.89;72.77;101944.39;107840;1277;61211;-76
2022/03/02 03:22:54;;;;;;;16.40;9.40;;;;;;;0.89;72.92;101941.09;108204;1277;60022;-75
2022/03/02 03:25:21;;;;;;;19.00;10.30;;;;;;;0.89;73.10;101934.30;107923;1277;75938;-74
2022/03/02 03:27:49;;;;;;;19.70;9.30;;;;;;;0.89;73.16;101931.64;108218;1277;72356;-74
2022/03/02 03:30:17;;;;;;;18.60;10.10;;;;;;;0.89;73.22;101928.53;107894;1277;73044;-74
2022/03/02 03:32:44;;;;;;;18.50;9.60;;;;;;;0.88;73.11;101926.34;108183;1277;61184;-74
2022/03/02 03:35:12;;;;;;;17.90;9.90;;;;;;;0.86;73.23;101926.05;108209;1277;62792;-76
2022/03/02 03:37:40;;;;;;;17.90;9.50;;;;;;;0.86;73.53;101922.27;108165;1277;76205;-74
2022/03/02 03:40:08;;;;;;;18.80;10.90;;;;;;;0.87;73.79;101923.77;108200;1277;72650;-76
2022/03/02 03:42:35;;;;;;;21.30;10.30;;;;;;;0.88;73.71;101920.41;108155;1277;72893;-75
2022/03/02 03:45:03;;;;;;;21.90;9.50;;;;;;;0.87;73.68;101918.00;108230;1277;59349;-75
2022/03/02 03:47:29;;;;;;;17.70;9.50;;;;;;;0.86;73.55;101918.91;108164;1277;61640;-75
2022/03/02 03:49:56;;;;;;;18.00;9.90;;;;;;;0.86;73.61;101921.36;108115;1277;75948;-74
2022/03/02 03:52:22;;;;;;;22.50;10.80;;;;;;;0.86;73.64;101918.23;108148;1277;72424;-76
2022/03/02 03:54:49;;;;;;;19.10;9.50;;;;;;;0.87;73.68;101917.48;108199;1277;59580;-75
2022/03/02 03:57:15;;;;;;;20.30;9.40;;;;;;;0.88;73.77;101916.05;108100;1277;59695;-76
2022/03/02 03:59:42;;;;;;;19.60;10.10;;;;;;;0.86;73.62;101914.76;108102;1277;59572;-74
2022/03/02 04:02:09;;;;;;;20.70;10.10;;;;;;;0.84;73.54;101911.02;108187;1277;59691;-74
2022/03/02 04:04:36;;;;;;;24.60;10.50;;;;;;;0.83;73.49;101912.30;108203;1277;72200;-73
2022/03/02 04:07:02;;;;;;;20.00;9.20;;;;;;;0.80;73.56;101913.30;108149;1277;72726;-74
2022/03/02 04:09:29;;;;;;;21.60;9.80;;;;;;;0.76;73.51;101910.36;108115;1277;60282;-74
2022/03/02 04:11:56;;;;;;;20.90;11.10;;;;;;;0.71;73.68;101909.42;108164;1277;59160;-74
2022/03/02 04:14:23;;;;;;;21.50;10.10;;;;;;;0.70;73.74;101912.46;108151;1276;75892;-73
2022/03/02 04:16:49;;;;;;;22.90;10.60;;;;;;;0.68;73.86;101909.41;108114;1277;70401;-77
2022/03/02 04:19:16;;;;;;;19.90;10.00;;;;;;;0.67;74.00;101910.71;108181;1277;72917;-74
2022/03/02 04:21:43;;;;;;;21.80;11.00;;;;;;;0.66;73.86;101915.46;108154;1277;59083;-74
2022/03/02 04:24:10;;;;;;;17.90;10.40;;;;;;;0.64;73.90;101913.84;108161;1277;61114;-76
2022/03/02 04:26:36;;;;;;;18.40;9.40;;;;;;;0.60;73.76;101920.81;108098;1277;59756;-75
2022/03/02 04:29:03;;;;;;;17.80;9.70;;;;;;;0.55;73.98;101920.20;108176;1277;59784;-76
2022/03/02 04:31:31;;;;;;;19.90;9.60;;;;;;;0.48;74.02;101925.27;108144;1277;58719;-76
2022/03/02 04:33:58;;;;;;;20.80;10.40;;;;;;;0.42;74.16;101923.34;108156;1277;61242;-77
2022/03/02 04:36:24;;;;;;;21.40;10.20;;;;;;;0.36;74.42;101927.08;107980;1277;60345;-74
2022/03/02 04:38:51;;;;;;;18.10;9.90;;;;;;;0.32;74.58;101921.88;107985;1277;59730;-76
2022/03/02 04:41:17;;;;;;;18.90;9.90;;;;;;;0.27;74.63;101923.55;108106;1277;59786;-76
2022/03/02 04:43:45;;;;;;;21.30;10.20;;;;;;;0.24;74.77;101920.23;107964;1277;59548;-76
2022/03/02 04:46:12;;;;;;;20.10;10.50;;;;;;;0.20;74.96;101915.38;108165;1275;61025;-75
2022/03/02 04:48:38;;;;;;;23.40;10.40;;;;;;;0.16;75.08;101911.41;107927;1265;60570;-76
2022/03/02 04:51:05;;;;;;;22.80;11.10;;;;;;;0.13;75.46;101911.38;107914;1279;59821;-76
2022/03/02 04:53:31;;;;;;;28.20;12.40;;;;;;;0.11;75.58;101907.34;107915;1279;59126;-77
2022/03/02 04:55:58;;;;;;;21.70;9.80;;;;;;;0.08;75.79;101909.75;107896;1279;59218;-75
2022/03/02 04:58:24;;;;;;;22.50;10.80;;;;;;;0.04;75.80;101908.02;107897;1278;59167;-76
2022/03/02 05:00:51;;;;;;;19.40;10.20;;;;;;;0.01;76.11;101906.94;107896;1278;59090;-74
2022/03/02 05:03:17;;;;;;;20.20;10.40;;;;;;;-0.01;76.33;101902.50;107943;1279;59224;-77
2022/03/02 05:05:44;;;;;;;22.10;11.00;;;;;;;-0.04;76.61;101903.33;107939;1279;72423;-76
2022/03/02 05:08:10;;;;;;;20.20;10.00;;;;;;;-0.08;76.54;101904.77;107877;1278;58988;-75
2022/03/02 05:10:37;;;;;;;20.70;9.80;;;;;;;-0.11;76.97;101900.06;107876;1279;59733;-75
2022/03/02 05:13:04;;;;;;;22.70;11.10;;;;;;;-0.13;77.19;101895.30;107777;1279;61298;-76
2022/03/02 05:15:31;;;;;;;19.90;10.10;;;;;;;-0.16;77.21;101893.89;107906;1279;75929;-76
2022/03/02 05:17:58;;;;;;;22.70;10.30;;;;;;;-0.21;77.50;101892.21;107957;1279;71068;-74
2022/03/02 05:20:25;;;;;;;23.40;11.00;;;;;;;-0.26;77.63;101892.98;107457;1281;73035;-76
2022/03/02 05:22:52;;;;;;;20.20;10.40;;;;;;;-0.29;78.02;101892.59;107900;1279;62551;-75
2022/03/02 05:25:19;;;;;;;25.30;10.50;;;;;;;-0.32;78.38;101891.52;107934;1279;61356;-75
2022/03/02 05:27:46;;;;;;;20.80;11.00;;;;;;;-0.35;78.57;101888.38;107913;1279;76083;-74
2022/03/02 05:30:15;;;;;;;23.10;9.70;;;;;;;-0.38;79.05;101890.46;107921;1279;72916;-75
2022/03/02 05:32:41;;;;;;;26.70;11.10;;;;;;;-0.42;79.24;101887.14;107897;1279;73096;-75
2022/03/02 05:35:09;;;;;;;27.60;11.40;;;;;;;-0.45;79.28;101886.59;107912;1279;59611;-77
2022/03/02 05:37:36;;;;;;;19.80;10.00;;;;;;;-0.46;79.72;101886.27;107779;1279;59394;-74
2022/03/02 05:40:04;;;;;;;25.00;12.00;;;;;;;-0.46;79.77;101889.93;107792;1279;75929;-76
2022/03/02 05:42:30;;;;;;;25.50;12.60;;;;;;;-0.47;79.79;101892.23;107942;1279;72827;-75
2022/03/02 05:44:57;;;;;;;21.70;11.10;;;;;;;-0.47;79.89;101902.66;107911;1279;60105;-75
2022/03/02 05:47:23;;;;;;;24.10;9.10;;;;;;;-0.48;80.08;101910.73;107927;1279;62138;-76
2022/03/02 05:49:50;;;;;;;24.80;12.00;;;;;;;-0.50;80.25;101908.35;108111;1277;59359;-76
2022/03/02 05:52:20;;;;;;;22.30;10.60;;;;;;;-0.50;80.26;101907.52;108061;1277;74964;-76
2022/03/02 05:54:47;;;;;;;27.20;13.00;;;;;;;-0.49;80.48;101903.44;108060;1277;71434;-74
2022/03/02 05:57:13;;;;;;;23.40;11.50;;;;;;;-0.47;80.61;101897.64;107981;1279;60571;-74
2022/03/02 05:59:40;;;;;;;23.30;12.00;;;;;;;-0.45;80.86;101898.76;108000;1278;62617;-74
2022/03/02 06:02:07;;;;;;;21.30;10.10;;;;;;;-0.42;80.73;101903.47;108057;1277;59083;-74
2022/03/02 06:04:33;;;;;;;25.80;11.00;;;;;;;-0.39;80.72;101897.61;108105;1277;74911;-74
2022/03/02 06:07:00;;;;;;;21.10;11.90;;;;;;;-0.37;80.81;101896.81;108034;1277;59142;-74
2022/03/02 06:09:26;;;;;;;26.60;13.10;;;;;;;-0.34;80.96;101898.08;108042;1279;59366;-76
2022/03/02 06:11:53;;;;;;;24.30;11.00;;;;;;;-0.32;80.90;101898.48;107946;1277;60274;-74
2022/03/02 06:14:20;;;;;;;24.40;11.60;;;;;;;-0.30;80.84;101896.63;108070;1277;61731;-74
2022/03/02 06:16:49;;;;;;;22.50;11.90;;;;;;;-0.27;80.78;101896.88;108136;1277;75989;-76
2022/03/02 06:19:16;;;;;;;20.10;10.20;;;;;;;-0.26;80.81;101898.38;108083;1277;72514;-76
2022/03/02 06:21:46;;;;;;;24.00;12.40;;;;;;;-0.25;80.70;101899.34;107998;1279;74009;-76
2022/03/02 06:24:14;;;;;;;25.80;12.10;;;;;;;-0.22;80.80;101905.46;108052;1278;60479;-76
2022/03/02 06:26:41;;;;;;;28.50;12.40;;;;;;;-0.19;80.72;101907.06;107879;1278;60862;-73
2022/03/02 06:29:08;;;;;;;24.20;11.00;;;;;;;-0.14;80.79;101907.14;108136;1279;74856;-74
2022/03/02 06:31:34;;;;;;;19.70;9.40;;;;;;;-0.07;81.08;101905.40;107956;1278;72310;-74
2022/03/02 06:34:01;;;;;;;11.20;5.60;;;;;;;-0.00;80.56;101905.09;107893;1279;59107;-74
2022/03/02 06:36:28;;;;;;;14.30;6.80;;;;;;;0.03;80.38;101903.05;108140;1277;61204;-74
2022/03/02 06:38:54;;;;;;;16.20;8.40;;;;;;;0.05;80.32;101902.04;108143;1277;61365;-74
2022/03/02 06:41:34;;;;;;;21.90;10.80;;;;;;;0.07;80.35;101901.41;108039;1279;60339;-74
2022/03/02 06:44:04;;;;;;;22.70;11.10;;;;;;;0.12;80.36;101905.66;108247;1277;71428;-74
2022/03/02 06:46:37;;;;;;;21.40;11.30;;;;;;;0.19;80.51;101905.86;108062;1278;73965;-74
2022/03/02 06:49:32;;;;;;;24.30;11.80;;;;;;;0.27;80.39;101904.61;108087;1278;61298;-74
2022/03/02 06:52:02;;;;;;;25.20;11.90;;;;;;;0.36;80.03;101911.60;108059;1278;58901;-74
2022/03/02 06:54:31;;;;;;;20.40;9.00;;;;;;;0.41;79.83;101919.18;108167;1279;75957;-74
2022/03/02 06:57:00;;;;;;;23.80;12.20;;;;;;;0.45;79.72;101916.73;108181;1277;70727;-73
2022/03/02 06:59:42;;;;;;;26.30;11.80;;;;;;;0.50;79.79;101914.00;108179;1277;73059;-74
2022/03/02 07:02:11;;;;;;;25.20;11.50;;;;;;;0.58;79.60;101905.58;108196;1277;61170;-74
2022/03/02 07:04:43;;;;;;;26.30;12.50;;;;;;;0.67;79.50;101908.27;108123;1277;61543;-73
2022/03/02 07:07:11;;;;;;;25.00;10.70;;;;;;;0.75;79.07;101907.98;108137;1277;74918;-74
2022/03/02 07:09:38;;;;;;;23.80;11.80;;;;;;;0.82;78.66;101905.73;108177;1277;71771;-74
2022/03/02 07:12:06;;;;;;;21.70;11.20;;;;;;;0.84;78.40;101902.46;108104;1279;72923;-75
2022/03/02 07:14:35;;;;;;;19.60;11.80;;;;;;;0.89;78.27;101903.45;107791;1279;61120;-75
2022/03/02 07:17:04;;;;;;;19.90;9.80;;;;;;;0.91;78.27;101904.52;108203;1277;60615;-75
2022/03/02 07:19:31;;;;;;;23.70;10.80;;;;;;;0.91;78.26;101911.34;108065;1279;75755;-73
2022/03/02 07:22:06;;;;;;;21.20;11.70;;;;;;;0.92;78.36;101914.93;108157;1279;71585;-71
2022/03/02 07:24:36;;;;;;;;;;;;;;;0.98;78.37;101920.73;108113;1279;74007;-72
2022/03/02 07:27:04;;;;;;;26.70;12.00;;;;;;;1.02;78.19;101918.39;107970;1279;61137;-73
2022/03/02 07:29:34;;;;;;;21.30;9.30;;;;;;;1.07;78.02;101918.48;108172;1277;61324;-73
2022/03/02 07:32:01;;;;;;;23.60;12.40;;;;;;;1.10;77.82;101915.16;108203;1277;75069;-73
2022/03/02 07:34:31;;;;;;;29.40;11.90;;;;;;;1.15;77.87;101912.31;108216;1277;71605;-74
2022/03/02 07:36:59;;;;;;;27.20;12.90;;;;;;;1.22;77.64;101914.73;108170;1277;74084;-73
2022/03/02 07:39:28;;;;;;;23.60;11.90;;;;;;;1.29;77.63;101913.33;107364;1280;797601;-74
2022/03/02 07:41:57;;;;;;;13.90;8.20;;;;;;;1.38;77.73;101916.29;108179;1277;61844;-74
2022/03/02 07:44:24;;;;;;;15.30;9.10;;;;;;;1.46;77.16;101915.48;108155;1278;76397;-73
2022/03/02 07:46:56;;;;;;;22.10;10.80;;;;;;;1.53;76.87;101915.27;108182;1277;71052;-73
2022/03/02 07:49:22;;;;;;;26.90;13.00;;;;;;;1.61;76.51;101907.83;108168;1277;72437;-74
2022/03/02 07:51:53;;;;;;;24.10;11.20;;;;;;;1.71;76.29;101907.27;108146;1279;59162;-73
2022/03/02 07:54:21;;;;;;;21.70;11.50;;;;;;;1.82;75.79;101908.41;108118;1279;60696;-73
2022/03/02 07:56:50;;;;;;;20.50;10.50;;;;;;;1.93;75.07;101908.63;108093;1278;75363;-73
2022/03/02 07:59:17;;;;;;;24.60;11.10;;;;;;;2.07;74.87;101909.21;108102;1278;72459;-74
2022/03/02 08:01:44;;;;;;;22.70;11.00;;;;;;;2.22;74.48;101907.13;108097;1278;72518;-73
2022/03/02 08:04:11;;;;;;;16.20;8.50;;;;;;;2.32;73.93;101905.27;107941;1279;61450;-74
2022/03/02 08:06:39;;;;;;;23.30;12.50;;;;;;;2.37;74.11;101906.00;108046;1279;59431;-73
2022/03/02 08:09:08;;;;;;;23.80;10.80;;;;;;;2.48;74.66;101900.14;107943;1279;73625;-74
2022/03/02 08:11:37;;;;;;;20.90;12.20;;;;;;;2.59;74.79;101899.09;108237;1277;71427;-75
2022/03/02 08:14:04;;;;;;;18.50;9.40;;;;;;;2.69;74.58;101899.55;108037;1278;72439;-74
2022/03/02 08:16:31;;;;;;;20.90;10.90;;;;;;;2.74;74.17;101896.81;108158;1277;62480;-74
2022/03/02 08:19:01;;;;;;;24.80;10.60;;;;;;;2.81;73.98;101897.23;108185;1277;60922;-73
2022/03/02 08:21:31;;;;;;;17.20;10.10;;;;;;;2.89;73.84;101899.89;107982;1279;74928;-73
2022/03/02 08:24:04;;;;;;;22.50;10.60;;;;;;;2.96;73.40;101899.67;108109;1279;71570;-73
2022/03/02 08:26:35;;;;;;;19.20;11.70;;;;;;;3.05;73.38;101899.95;107929;1279;71761;-74
2022/03/02 08:29:05;;;;;;;16.40;9.40;;;;;;;3.18;73.12;101892.50;108145;1279;61731;-74
2022/03/02 08:31:34;;;;;;;24.20;11.10;;;;;;;3.31;72.19;101894.14;108195;1277;60267;-73
2022/03/02 08:34:03;;;;;;;18.90;9.80;;;;;;;3.43;71.19;101891.94;108084;1279;74741;-74
2022/03/02 08:36:36;;;;;;;19.20;7.40;;;;;;;3.56;70.64;101881.69;108143;1277;71393;-74
2022/03/02 08:39:05;;;;;;;19.70;9.00;;;;;;;3.66;69.63;101878.71;108231;1277;73507;-75
2022/03/02 08:41:32;;;;;;;16.00;8.40;;;;;;;3.74;69.39;101878.42;108070;1278;60884;-74
2022/03/02 08:43:59;;;;;;;16.50;9.30;;;;;;;3.81;69.05;101877.23;108028;1279;61420;-74
2022/03/02 08:46:27;;;;;;;15.30;8.00;;;;;;;3.93;69.64;101876.80;108092;1279;76202;-74
2022/03/02 08:48:54;;;;;;;18.40;9.20;;;;;;;4.05;67.58;101876.19;108302;1277;71417;-74
2022/03/02 08:51:23;;;;;;;16.40;8.00;;;;;;;4.13;66.92;101876.70;107940;1279;72990;-74
2022/03/02 08:53:54;;;;;;;19.60;9.60;;;;;;;4.25;67.44;101873.75;108119;1279;60847;-75
2022/03/02 08:56:21;;;;;;;13.80;9.00;;;;;;;4.44;67.87;101872.81;108069;1279;61460;-74
2022/03/02 08:58:49;;;;;;;18.00;8.50;;;;;;;4.61;67.83;101868.30;108099;1279;74952;-74
2022/03/02 09:01:15;;;;;;;22.10;8.10;;;;;;;4.74;67.20;101869.50;108089;1279;72594;-75
2022/03/02 09:03:46;;;;;;;18.30;8.60;;;;;;;4.81;66.66;101864.96;108173;1277;72876;-77
2022/03/02 09:06:13;;;;;;;15.10;7.60;;;;;;;4.90;66.72;101864.52;107987;1279;60794;-75
2022/03/02 09:08:39;;;;;;;13.20;7.30;;;;;;;5.00;64.75;101868.02;108107;1278;60945;-75
2022/03/02 09:11:08;;;;;;;15.90;8.30;;;;;;;5.09;63.94;101871.60;108139;1277;73738;-73
2022/03/02 09:13:36;;;;;;;12.30;5.90;;;;;;;5.22;63.83;101876.44;108198;1278;72300;-72
2022/03/02 09:16:08;;;;;;;12.80;7.40;;;;;;;5.26;61.84;101877.17;107668;1279;72902;-73
2022/03/02 09:18:34;;;;;;;12.90;7.70;;;;;;;5.28;62.44;101878.78;108177;1279;59895;-74
2022/03/02 09:21:04;;;;;;;15.10;8.90;;;;;;;5.36;62.47;101877.49;108100;1279;59246;-73
2022/03/02 09:23:40;;;;;;;9.90;6.00;;;;;;;5.51;62.05;101873.09;108184;1278;74884;-72
2022/03/02 09:26:12;;;;;;;14.80;7.60;;;;;;;5.63;60.70;101875.53;108065;1279;71349;-72
2022/03/02 09:28:41;;;;;;;12.30;7.00;;;;;;;5.75;61.33;101875.32;108227;1278;72878;-73
2022/03/02 09:31:10;;;;;;;14.10;8.20;;;;;;;5.84;59.92;101881.00;108268;1277;59771;-74
2022/03/02 09:33:37;;;;;;;15.40;6.70;;;;;;;5.95;60.30;101883.71;108160;1278;59838;-73
2022/03/02 09:36:09;;;;;;;14.80;8.80;;;;;;;6.04;59.01;101884.80;108209;1277;75922;-74
2022/03/02 09:38:39;;;;;;;12.70;8.10;;;;;;;6.20;58.79;101885.89;108081;1279;72501;-72
2022/03/02 09:41:17;;;;;;;15.20;8.80;;;;;;;6.36;57.36;101887.65;108263;1278;74537;-73
2022/03/02 09:43:48;;;;;;;10.80;6.00;;;;;;;6.56;54.82;101882.04;108146;1278;60565;-73
2022/03/02 09:46:18;;;;;;;15.10;6.90;;;;;;;6.74;51.86;101879.96;108159;1279;60608;-73
2022/03/02 09:48:48;;;;;;;15.60;8.60;;;;;;;6.91;52.02;101879.98;108173;1277;76220;-74
2022/03/02 09:51:23;;;;;;;12.60;7.00;;;;;;;7.13;52.42;101878.25;108113;1279;72588;-73
2022/03/02 09:53:53;;;;;;;16.60;8.40;;;;;;;7.36;51.36;101876.39;108067;1279;72917;-74
2022/03/02 09:56:24;;;;;;;9.30;5.40;;;;;;;7.53;51.34;101876.61;108227;1278;59668;-72
2022/03/02 09:58:53;;;;;;;16.30;8.00;;;;;;;7.65;50.76;101872.92;108199;1278;61050;-74
2022/03/02 10:01:24;;;;;;;12.60;6.90;;;;;;;7.74;49.89;101872.38;108094;1279;74934;-74
2022/03/02 10:03:53;;;;;;;16.00;7.60;;;;;;;7.76;48.09;101875.38;108081;1278;70542;-73
2022/03/02 10:06:23;;;;;;;14.10;7.50;;;;;;;7.74;48.36;101873.05;107798;1280;72974;-74
2022/03/02 10:08:52;;;;;;;18.00;8.70;;;;;;;7.77;49.21;101866.71;108155;1278;59966;-74
2022/03/02 10:11:23;;;;;;;15.40;7.20;;;;;;;7.81;48.35;101865.86;108177;1279;61083;-73
2022/03/02 10:13:55;;;;;;;15.00;8.10;;;;;;;7.74;45.87;101861.28;108167;1279;74999;-74
2022/03/02 10:16:27;;;;;;;13.90;7.00;;;;;;;7.64;45.64;101864.92;108149;1279;71528;-73
2022/03/02 10:19:00;;;;;;;13.90;7.80;;;;;;;7.60;46.89;101864.39;108135;1278;72634;-74
2022/03/02 10:21:29;;;;;;;13.80;7.70;;;;;;;7.64;48.84;101863.88;108107;1279;60609;-74
2022/03/02 10:24:00;;;;;;;16.70;8.90;;;;;;;7.73;48.98;101862.60;108129;1279;60283;-74
2022/03/02 10:26:31;;;;;;;13.60;7.70;;;;;;;7.78;48.06;101861.50;108260;1278;75893;-74
2022/03/02 10:29:25;;;;;;;12.30;7.30;;;;;;;7.82;47.31;101857.14;108059;1278;72353;-73
2022/03/02 10:32:09;;;;;;;16.00;8.80;;;;;;;7.82;46.72;101855.78;108107;1279;73581;-74
2022/03/02 10:34:37;;;;;;;11.60;6.40;;;;;;;7.84;46.13;101854.31;108106;1279;59603;-74
2022/03/02 10:37:08;;;;;;;11.50;6.60;;;;;;;7.82;46.28;101850.24;108138;1279;61434;-73
2022/03/02 10:40:09;;;;;;;14.80;8.20;;;;;;;7.83;46.88;101851.80;107840;1280;75359;-72
2022/03/02 10:42:42;;;;;;;13.90;8.50;;;;;;;7.89;46.75;101851.11;108138;1278;71394;-73
2022/03/02 10:45:18;;;;;;;15.20;8.80;;;;;;;7.91;45.11;101850.16;108189;1278;72994;-72
2022/03/02 10:47:54;;;;;;;17.10;8.70;;;;;;;7.99;45.55;101849.92;108002;1280;59183;-73
2022/03/02 10:50:23;;;;;;;12.70;7.70;;;;;;;8.09;45.74;101852.05;108156;1278;60407;-72
2022/03/02 10:52:53;;;;;;;11.00;6.80;;;;;;;8.19;45.05;101845.58;108039;1280;75367;-73
2022/03/02 10:55:20;;;;;;;14.50;7.60;;;;;;;8.31;44.16;101843.83;108145;1279;72352;-72
2022/03/02 10:57:49;;;;;;;12.00;7.20;;;;;;;8.39;43.98;101840.66;108198;1278;74154;-73
2022/03/02 11:00:18;;;;;;;16.50;8.70;;;;;;;8.45;43.94;101841.05;108147;1278;60862;-74
2022/03/02 11:02:48;;;;;;;11.60;6.90;;;;;;;8.47;43.44;101836.64;108099;1279;60340;-72
2022/03/02 11:05:17;;;;;;;12.70;6.90;;;;;;;8.51;43.43;101834.35;108142;1279;75001;-73
2022/03/02 11:07:46;;;;;;;11.60;6.60;;;;;;;8.57;42.80;101833.29;108218;1278;72538;-74
2022/03/02 11:10:16;;;;;;;9.60;6.50;;;;;;;8.59;41.71;101831.09;108085;1279;71870;-71
2022/03/02 11:12:46;;;;;;;12.70;7.00;;;;;;;8.62;41.95;101831.81;108169;1279;59896;-72
2022/03/02 11:15:15;;;;;;;13.00;7.60;;;;;;;8.61;41.29;101828.02;107807;1281;61791;-73
2022/03/02 11:18:01;;;;;;;13.60;7.50;;;;;;;8.71;42.37;101825.02;108031;1279;75054;-73
2022/03/02 11:20:30;;;;;;;13.00;6.90;;;;;;;8.80;41.68;101822.69;108218;1278;72614;-72